createdAt,value
2022-11-16T00:01:54.253Z,11.10
2022-11-16T00:04:22.362Z,10.47
2022-11-16T00:06:50.218Z,10.25
2022-11-16T00:09:27.178Z,10.70
2022-11-16T00:11:58.123Z,11.25
2022-11-16T00:14:27.912Z,11.10
2022-11-16T00:16:56.225Z,11.47
2022-11-16T00:19:24.337Z,10.40
2022-11-16T00:21:52.783Z,11.38
2022-11-16T00:24:23.741Z,10.35
2022-11-16T00:26:54.353Z,10.85
2022-11-16T00:29:24.047Z,10.13
2022-11-16T00:31:52.492Z,10.90
2022-11-16T00:34:22.342Z,10.93
2022-11-16T00:36:50.620Z,10.55
2022-11-16T00:39:19.120Z,10.90
2022-11-16T00:41:49.306Z,9.97
2022-11-16T00:44:18.394Z,9.80
2022-11-16T00:46:46.524Z,9.73
2022-11-16T00:49:14.211Z,10.05
2022-11-16T00:51:43.887Z,9.82
2022-11-16T00:54:12.393Z,9.40
2022-11-16T00:56:40.874Z,10.40
2022-11-16T00:59:10.015Z,9.02
2022-11-16T01:01:37.789Z,8.65
2022-11-16T01:04:05.841Z,8.90
2022-11-16T01:06:33.603Z,7.60
2022-11-16T01:09:01.825Z,8.57
2022-11-16T01:11:47.289Z,8.00
2022-11-16T01:14:16.495Z,7.75
2022-11-16T01:16:44.597Z,7.47
2022-11-16T01:19:12.314Z,7.47
2022-11-16T01:21:40.108Z,7.07
2022-11-16T01:24:07.922Z,7.30
2022-11-16T01:26:35.665Z,7.18
2022-11-16T01:29:03.424Z,7.50
2022-11-16T01:31:36.958Z,7.03
2022-11-16T01:34:05.791Z,7.25
2022-11-16T01:36:35.383Z,7.40
2022-11-16T01:39:04.007Z,7.13
2022-11-16T01:41:41.747Z,6.68
2022-11-16T01:44:43.231Z,7.33
2022-11-16T01:47:18.573Z,7.18
2022-11-16T01:49:49.686Z,7.60
2022-11-16T01:52:23.135Z,7.90
2022-11-16T01:54:53.394Z,7.45
2022-11-16T01:57:25.342Z,7.80
2022-11-16T02:00:03.105Z,8.00
2022-11-16T02:02:43.027Z,8.18
2022-11-16T02:05:27.941Z,7.68
2022-11-16T02:08:34.589Z,8.50
2022-11-16T02:11:15.951Z,8.30
2022-11-16T02:13:54.391Z,8.40
2022-11-16T02:16:30.067Z,9.10
2022-11-16T02:19:10.279Z,8.50
2022-11-16T02:21:43.802Z,8.98
2022-11-16T02:24:43.573Z,9.50
2022-11-16T02:27:34.943Z,9.45
2022-11-16T02:30:06.084Z,9.98
2022-11-16T02:32:38.627Z,7.75
2022-11-16T02:35:13.971Z,7.70
2022-11-16T02:37:47.672Z,7.47
2022-11-16T02:40:20.010Z,5.65
2022-11-16T02:42:53.534Z,4.70
2022-11-16T02:45:25.304Z,3.92
2022-11-16T02:47:56.330Z,3.45
2022-11-16T02:50:25.679Z,3.17
2022-11-16T02:52:55.658Z,3.17
2022-11-16T02:55:26.868Z,2.90
2022-11-16T02:57:58.125Z,2.70
2022-11-16T03:00:34.471Z,2.55
2022-11-16T03:03:16.435Z,2.50
2022-11-16T03:05:48.889Z,2.40
2022-11-16T03:08:22.978Z,2.75
2022-11-16T03:11:12.380Z,2.38
2022-11-16T03:13:41.776Z,2.78
2022-11-16T03:16:15.732Z,2.80
2022-11-16T03:18:45.393Z,3.05
2022-11-16T03:21:19.142Z,3.05
2022-11-16T03:23:47.694Z,3.30
2022-11-16T03:26:19.721Z,3.30
2022-11-16T03:28:52.694Z,3.57
2022-11-16T03:31:27.843Z,3.95
2022-11-16T03:33:58.775Z,4.10
2022-11-16T03:36:30.139Z,3.72
2022-11-16T03:39:02.933Z,4.10
2022-11-16T03:41:34.077Z,3.63
2022-11-16T03:44:02.667Z,3.33
2022-11-16T03:46:31.874Z,3.15
2022-11-16T03:49:01.687Z,3.20
2022-11-16T03:51:33.894Z,2.83
2022-11-16T03:54:01.731Z,2.67
2022-11-16T03:56:29.726Z,2.65
2022-11-16T03:58:58.128Z,2.35
2022-11-16T04:01:25.959Z,2.40
2022-11-16T04:03:55.648Z,2.40
2022-11-16T04:06:42.149Z,2.27
2022-11-16T04:09:24.140Z,2.33
2022-11-16T04:12:09.692Z,2.15
2022-11-16T04:14:57.667Z,2.05
2022-11-16T04:17:45.933Z,2.17
2022-11-16T04:20:33.997Z,2.53
2022-11-16T04:23:23.360Z,2.80
2022-11-16T04:25:54.314Z,2.50
2022-11-16T04:28:27.166Z,2.58
2022-11-16T04:31:19.359Z,2.72
2022-11-16T04:34:11.390Z,2.57
2022-11-16T04:37:03.560Z,3.00
2022-11-16T04:39:32.496Z,3.30
2022-11-16T04:42:15.295Z,3.15
2022-11-16T04:45:02.383Z,3.83
2022-11-16T04:47:36.698Z,4.30
2022-11-16T04:50:05.276Z,4.72
2022-11-16T04:52:34.988Z,5.35
2022-11-16T04:55:04.260Z,5.43
2022-11-16T04:57:32.015Z,6.13
2022-11-16T04:59:59.853Z,6.40
2022-11-16T05:02:28.341Z,6.80
2022-11-16T05:04:58.812Z,6.72
2022-11-16T05:07:28.466Z,6.80
2022-11-16T05:10:06.815Z,7.40
2022-11-16T05:12:35.700Z,6.70
2022-11-16T05:15:07.918Z,7.13
2022-11-16T05:17:36.220Z,7.60
2022-11-16T05:20:26.132Z,7.38
2022-11-16T05:22:59.969Z,6.75
2022-11-16T05:25:36.687Z,6.87
2022-11-16T05:28:07.982Z,7.10
2022-11-16T05:30:40.213Z,6.47
2022-11-16T05:33:08.595Z,6.95
2022-11-16T05:35:40.569Z,6.97
2022-11-16T05:38:09.694Z,7.13
2022-11-16T05:40:43.650Z,6.95
2022-11-16T05:43:11.834Z,6.93
2022-11-16T05:45:47.179Z,6.88
2022-11-16T05:48:16.730Z,6.93
2022-11-16T05:50:44.940Z,7.00
2022-11-16T05:53:19.973Z,6.50
2022-11-16T05:55:50.267Z,6.85
2022-11-16T05:58:19.685Z,6.78
2022-11-16T06:00:49.327Z,7.03
2022-11-16T06:03:18.392Z,6.97
2022-11-16T06:05:46.159Z,7.22
2022-11-16T06:08:16.539Z,7.10
2022-11-16T06:10:44.322Z,7.18
2022-11-16T06:13:13.720Z,7.05
2022-11-16T06:15:42.240Z,6.80
2022-11-16T06:18:10.816Z,6.75
2022-11-16T06:20:40.938Z,6.50
2022-11-16T06:23:08.662Z,6.65
2022-11-16T06:25:39.495Z,7.07
2022-11-16T06:28:08.362Z,6.67
2022-11-16T06:30:39.447Z,6.65
2022-11-16T06:33:09.952Z,6.80
2022-11-16T06:35:38.767Z,6.60
2022-11-16T06:38:06.792Z,6.65
2022-11-16T06:40:34.978Z,6.57
2022-11-16T06:43:04.394Z,6.25
2022-11-16T06:45:32.592Z,6.55
2022-11-16T06:48:03.838Z,6.93
2022-11-16T06:50:33.018Z,7.03
2022-11-16T06:53:00.810Z,6.23
2022-11-16T06:55:30.143Z,6.75
2022-11-16T06:57:58.128Z,7.15
2022-11-16T07:00:26.275Z,6.60
2022-11-16T07:02:54.055Z,7.10
2022-11-16T07:05:23.203Z,6.03
2022-11-16T07:07:54.906Z,6.30
2022-11-16T07:10:23.734Z,6.15
2022-11-16T07:12:52.670Z,6.10
2022-11-16T07:15:21.917Z,6.53
2022-11-16T07:17:49.822Z,6.50
2022-11-16T07:20:19.375Z,6.35
2022-11-16T07:22:48.559Z,6.07
2022-11-16T07:25:18.690Z,7.13
2022-11-16T07:27:47.129Z,5.82
2022-11-16T07:30:15.619Z,5.97
2022-11-16T07:33:02.650Z,6.10
2022-11-16T07:35:50.322Z,6.63
2022-11-16T07:38:19.752Z,5.90
2022-11-16T07:40:47.556Z,6.30
2022-11-16T07:43:18.272Z,6.23
2022-11-16T07:46:47.620Z,6.40
2022-11-16T07:49:14.270Z,6.43
2022-11-16T07:51:49.134Z,6.60
2022-11-16T07:54:32.825Z,6.13
2022-11-16T07:57:00.606Z,6.27
2022-11-16T07:59:29.342Z,6.18
2022-11-16T08:01:57.203Z,6.43
2022-11-16T08:04:25.055Z,7.00
2022-11-16T08:06:53.080Z,6.15
2022-11-16T08:09:22.106Z,6.23
2022-11-16T08:11:52.794Z,5.65
2022-11-16T08:14:20.561Z,6.05
2022-11-16T08:16:50.809Z,5.75
2022-11-16T08:19:19.365Z,5.95
2022-11-16T08:21:47.101Z,5.40
2022-11-16T08:24:16.451Z,5.45
2022-11-16T08:26:45.622Z,5.72
2022-11-16T08:29:16.682Z,5.68
2022-11-16T08:31:49.527Z,5.18
2022-11-16T08:34:21.304Z,4.77
2022-11-16T08:36:53.095Z,5.35
2022-11-16T08:39:26.735Z,4.05
2022-11-16T08:41:54.767Z,3.65
2022-11-16T08:44:24.538Z,3.85
2022-11-16T08:46:55.002Z,3.70
2022-11-16T08:49:29.904Z,3.38
2022-11-16T08:51:58.824Z,3.60
2022-11-16T08:54:29.201Z,3.33
2022-11-16T08:56:57.390Z,3.35
2022-11-16T08:59:26.555Z,2.87
2022-11-16T09:01:57.887Z,3.53
2022-11-16T09:04:25.742Z,3.15
2022-11-16T09:06:54.966Z,2.75
2022-11-16T09:09:22.785Z,3.08
2022-11-16T09:11:52.486Z,3.13
2022-11-16T09:14:20.263Z,2.83
2022-11-16T09:16:49.469Z,2.63
2022-11-16T09:19:17.511Z,3.20
2022-11-16T09:21:45.635Z,3.08
2022-11-16T09:24:13.724Z,2.80
2022-11-16T09:26:41.464Z,3.08
2022-11-16T09:29:13.529Z,2.80
2022-11-16T09:31:41.885Z,2.70
2022-11-16T09:34:10.919Z,2.50
2022-11-16T09:36:38.628Z,2.37
2022-11-16T09:42:06.601Z,2.60
2022-11-16T09:44:57.384Z,2.60
2022-11-16T09:47:32.063Z,2.80
2022-11-16T09:50:04.377Z,2.20
2022-11-16T09:52:35.305Z,2.40
2022-11-16T09:55:06.538Z,2.67
2022-11-16T09:57:38.228Z,2.45
2022-11-16T10:00:15.314Z,2.70
2022-11-16T10:02:46.297Z,2.70
2022-11-16T10:05:21.108Z,2.92
2022-11-16T10:07:51.976Z,3.42
2022-11-16T10:10:26.498Z,2.70
2022-11-16T10:13:00.467Z,3.13
2022-11-16T10:15:42.512Z,3.53
2022-11-16T10:18:31.181Z,3.67
2022-11-16T10:21:15.145Z,3.53
2022-11-16T10:23:58.151Z,4.25
2022-11-16T10:26:32.591Z,3.50
2022-11-16T10:29:22.513Z,3.97
2022-11-16T10:32:02.460Z,3.30
2022-11-16T10:34:41.566Z,3.95
2022-11-16T10:37:13.931Z,3.85
2022-11-16T10:39:41.998Z,3.85
2022-11-16T10:42:15.602Z,3.47
2022-11-16T10:44:47.623Z,4.07
2022-11-16T10:47:19.621Z,4.13
2022-11-16T10:49:54.624Z,3.72
2022-11-16T10:52:25.167Z,4.40
2022-11-16T10:54:53.415Z,3.80
2022-11-16T10:57:23.752Z,4.03
2022-11-16T10:59:55.371Z,4.38
2022-11-16T11:02:35.953Z,4.22
2022-11-16T11:05:16.506Z,4.65
2022-11-16T11:07:55.340Z,4.13
2022-11-16T11:10:30.547Z,4.03
2022-11-16T11:13:18.487Z,4.28
2022-11-16T11:15:47.979Z,4.05
2022-11-16T11:18:25.578Z,3.90
2022-11-16T11:21:07.013Z,3.50
2022-11-16T11:23:44.919Z,3.40
2022-11-16T11:26:34.689Z,3.33
2022-11-16T11:29:16.647Z,4.28
2022-11-16T11:31:48.443Z,3.35
2022-11-16T11:34:20.120Z,3.30
2022-11-16T11:36:51.800Z,3.10
2022-11-16T11:39:45.329Z,3.33
2022-11-16T11:42:23.843Z,2.97
2022-11-16T11:44:57.225Z,3.17
2022-11-16T11:50:25.717Z,3.20
2022-11-16T11:53:01.311Z,3.47
2022-11-16T11:55:30.715Z,3.10
2022-11-16T11:58:00.531Z,3.60
2022-11-16T12:00:30.594Z,2.67
2022-11-16T12:03:37.452Z,2.90
2022-11-16T12:06:12.090Z,3.38
2022-11-16T12:09:02.605Z,2.85
2022-11-16T12:11:43.554Z,2.92
2022-11-16T12:14:24.762Z,3.50
2022-11-16T12:17:07.104Z,2.50
2022-11-16T12:20:00.554Z,2.33
2022-11-16T12:22:51.233Z,2.20
2022-11-16T12:25:25.960Z,2.70
2022-11-16T12:28:12.129Z,2.13
2022-11-16T12:30:51.595Z,2.10
2022-11-16T12:33:29.776Z,2.10
2022-11-16T12:36:03.346Z,2.03
2022-11-16T12:38:43.187Z,2.13
2022-11-16T12:41:35.987Z,2.03
2022-11-16T12:44:09.801Z,1.83
2022-11-16T12:46:47.159Z,2.20
2022-11-16T12:49:44.963Z,2.13
2022-11-16T12:52:25.048Z,1.92
2022-11-16T12:55:30.309Z,1.87
2022-11-16T12:58:11.162Z,1.80
2022-11-16T13:00:51.191Z,1.90
2022-11-16T13:03:24.404Z,1.77
2022-11-16T13:05:59.513Z,1.60
2022-11-16T13:08:46.607Z,1.90
2022-11-16T13:11:19.259Z,2.50
2022-11-16T13:13:53.412Z,2.05
2022-11-16T13:16:25.085Z,2.03
2022-11-16T13:18:54.824Z,2.00
2022-11-16T13:21:30.991Z,1.90
2022-11-16T13:24:13.446Z,1.88
2022-11-16T13:26:45.953Z,1.70
2022-11-16T13:29:22.051Z,1.98
2022-11-16T13:31:57.702Z,1.85
2022-11-16T13:34:27.999Z,2.13
2022-11-16T13:36:55.749Z,1.88
2022-11-16T13:39:58.455Z,1.30
2022-11-16T13:42:26.980Z,1.70
2022-11-16T13:45:05.402Z,2.22
2022-11-16T13:47:35.123Z,1.20
2022-11-16T13:50:05.334Z,1.20
2022-11-16T13:53:23.473Z,2.35
2022-11-16T13:55:34.008Z,1.52
2022-11-16T13:58:05.101Z,1.65
2022-11-16T14:00:35.348Z,2.00
2022-11-16T14:03:31.748Z,1.30
2022-11-16T14:05:59.771Z,1.45
2022-11-16T14:08:56.737Z,1.67
2022-11-16T14:11:36.160Z,1.90
2022-11-16T14:14:06.545Z,1.23
2022-11-16T14:16:49.812Z,1.98
2022-11-16T14:19:55.098Z,1.73
2022-11-16T14:22:45.489Z,1.90
2022-11-16T14:25:29.374Z,1.70
2022-11-16T14:28:07.795Z,1.43
2022-11-16T14:30:49.391Z,1.38
2022-11-16T14:33:29.886Z,1.45
2022-11-16T14:35:59.698Z,1.35
2022-11-16T14:38:33.912Z,1.45
2022-11-16T14:41:03.844Z,1.53
2022-11-16T14:43:36.930Z,1.70
2022-11-16T14:46:09.227Z,1.60
2022-11-16T14:48:45.262Z,1.42
2022-11-16T14:51:19.985Z,1.70
2022-11-16T14:53:51.551Z,1.70
2022-11-16T14:56:20.104Z,1.90
2022-11-16T14:58:55.739Z,1.85
2022-11-16T15:01:27.036Z,1.75
2022-11-16T15:04:02.164Z,1.70
2022-11-16T15:06:36.447Z,1.90
2022-11-16T15:09:06.198Z,1.50
2022-11-16T15:11:55.934Z,1.65
2022-11-16T15:14:26.648Z,1.33
2022-11-16T15:16:56.132Z,1.55
2022-11-16T15:19:24.749Z,1.47
2022-11-16T15:21:55.662Z,1.40
2022-11-16T15:24:30.379Z,1.33
2022-11-16T15:27:10.126Z,2.13
2022-11-16T15:29:38.339Z,1.50
2022-11-16T15:32:08.060Z,1.77
2022-11-16T15:34:39.626Z,1.60
2022-11-16T15:37:11.797Z,1.58
2022-11-16T15:39:40.480Z,1.52
2022-11-16T15:42:14.740Z,1.67
2022-11-16T15:44:44.192Z,1.43
2022-11-16T15:47:14.244Z,1.45
2022-11-16T15:49:44.039Z,1.85
2022-11-16T15:52:13.162Z,1.40
2022-11-16T15:54:58.444Z,1.20
2022-11-16T15:57:26.758Z,1.40
2022-11-16T15:59:57.412Z,1.40
2022-11-16T16:02:28.038Z,1.30
2022-11-16T16:04:55.817Z,1.67
2022-11-16T16:07:41.844Z,1.48
2022-11-16T16:10:15.273Z,1.40
2022-11-16T16:12:50.222Z,1.30
2022-11-16T16:15:23.650Z,1.42
2022-11-16T16:17:51.871Z,1.60
2022-11-16T16:20:21.881Z,1.40
2022-11-16T16:22:51.252Z,1.97
2022-11-16T16:25:30.207Z,1.80
2022-11-16T16:27:58.146Z,1.50
2022-11-16T16:30:26.377Z,1.50
2022-11-16T16:32:54.227Z,1.55
2022-11-16T16:35:23.722Z,1.50
2022-11-16T16:37:59.137Z,1.38
2022-11-16T16:40:27.291Z,1.42
2022-11-16T16:42:58.796Z,1.15
2022-11-16T16:45:35.306Z,1.50
2022-11-16T16:48:03.028Z,1.20
2022-11-16T16:50:30.733Z,1.20
2022-11-16T16:52:59.837Z,1.10
2022-11-16T16:55:28.337Z,1.50
2022-11-16T16:57:59.308Z,1.40
2022-11-16T17:00:27.118Z,1.50
2022-11-16T17:02:54.921Z,1.70
2022-11-16T17:05:22.721Z,1.58
2022-11-16T17:07:50.682Z,1.77
2022-11-16T17:10:19.816Z,1.58
2022-11-16T17:12:47.580Z,1.60
2022-11-16T17:15:19.372Z,1.60
2022-11-16T17:17:47.459Z,1.30
2022-11-16T17:20:24.377Z,1.60
2022-11-16T17:22:52.533Z,1.20
2022-11-16T17:25:21.749Z,1.53
2022-11-16T17:27:49.963Z,1.50
2022-11-16T17:30:17.863Z,1.88
2022-11-16T17:32:45.582Z,1.90
2022-11-16T17:35:13.875Z,1.50
2022-11-16T17:37:41.787Z,1.97
2022-11-16T17:40:11.424Z,1.58
2022-11-16T17:42:40.586Z,2.10
2022-11-16T17:45:08.845Z,1.77
2022-11-16T17:47:36.611Z,1.85
2022-11-16T17:50:04.591Z,1.73
2022-11-16T17:52:32.315Z,1.90
2022-11-16T17:55:00.001Z,1.55
2022-11-16T17:57:27.695Z,1.90
2022-11-16T17:59:56.806Z,1.40
2022-11-16T18:02:24.606Z,1.30
2022-11-16T18:04:52.362Z,1.05
2022-11-16T18:07:20.125Z,1.52
2022-11-16T18:09:47.925Z,1.42
2022-11-16T18:12:15.632Z,1.17
2022-11-16T18:14:59.871Z,1.47
2022-11-16T18:17:32.504Z,1.65
2022-11-16T18:20:00.162Z,1.38
2022-11-16T18:22:28.057Z,1.50
2022-11-16T18:24:55.817Z,1.38
2022-11-16T18:27:23.586Z,1.40
2022-11-16T18:29:51.342Z,1.33
2022-11-16T18:32:19.122Z,1.33
2022-11-16T18:34:48.268Z,1.10
2022-11-16T18:37:16.055Z,1.10
2022-11-16T18:39:43.785Z,1.67
2022-11-16T18:42:12.606Z,1.60
2022-11-16T18:44:40.373Z,2.00
2022-11-16T18:47:08.113Z,1.50
2022-11-16T18:49:35.900Z,1.70
2022-11-16T18:52:05.380Z,1.47
2022-11-16T18:54:33.218Z,1.50
2022-11-16T18:57:01.261Z,1.77
2022-11-16T18:59:29.005Z,1.67
2022-11-16T19:01:56.991Z,1.88
2022-11-16T19:04:26.858Z,1.57
2022-11-16T19:06:54.984Z,1.50
2022-11-16T19:09:24.077Z,1.77
2022-11-16T19:11:51.841Z,1.60
2022-11-16T19:14:19.573Z,1.60
2022-11-16T19:16:54.030Z,1.60
2022-11-16T19:19:25.272Z,1.75
2022-11-16T19:21:52.985Z,1.60
2022-11-16T19:24:20.740Z,1.50
2022-11-16T19:26:50.034Z,1.88
2022-11-16T19:29:17.732Z,1.50
2022-11-16T19:31:45.402Z,1.70
2022-11-16T19:34:13.950Z,1.63
2022-11-16T19:36:41.855Z,2.20
2022-11-16T19:39:09.575Z,1.65
2022-11-16T19:41:37.320Z,1.93
2022-11-16T19:44:06.699Z,1.77
2022-11-16T19:46:35.841Z,1.52
2022-11-16T19:49:03.806Z,1.70
2022-11-16T19:51:32.906Z,2.05
2022-11-16T19:54:01.588Z,1.90
2022-11-16T19:56:29.689Z,1.85
2022-11-16T19:58:57.598Z,1.88
2022-11-16T20:01:29.149Z,1.88
2022-11-16T20:03:58.984Z,1.58
2022-11-16T20:06:29.338Z,1.90
2022-11-16T20:09:00.629Z,1.88
2022-11-16T20:11:30.086Z,1.80
2022-11-16T20:13:59.094Z,1.83
2022-11-16T20:16:35.421Z,1.88
2022-11-16T20:19:06.721Z,1.90
2022-11-16T20:21:36.107Z,2.17
2022-11-16T20:24:07.057Z,1.88
2022-11-16T20:26:36.575Z,2.17
2022-11-16T20:29:04.596Z,2.25
2022-11-16T20:31:34.676Z,2.40
2022-11-16T20:34:04.390Z,2.20
2022-11-16T20:36:33.576Z,2.10
2022-11-16T20:39:01.919Z,1.73
2022-11-16T20:41:31.378Z,2.20
2022-11-16T20:44:00.491Z,1.97
2022-11-16T20:46:29.862Z,1.88
2022-11-16T20:48:59.368Z,2.10
2022-11-16T20:51:27.792Z,1.92
2022-11-16T20:53:55.703Z,2.30
2022-11-16T20:56:23.490Z,2.00
2022-11-16T20:58:51.405Z,1.75
2022-11-16T21:01:21.102Z,2.05
2022-11-16T21:03:49.021Z,2.75
2022-11-16T21:06:18.072Z,2.03
2022-11-16T21:08:45.946Z,2.07
2022-11-16T21:11:15.168Z,1.98
2022-11-16T21:14:00.840Z,1.88
2022-11-16T21:16:28.578Z,1.90
2022-11-16T21:18:56.311Z,2.08
2022-11-16T21:21:26.029Z,2.10
2022-11-16T21:23:54.879Z,2.20
2022-11-16T21:26:24.383Z,2.00
2022-11-16T21:28:53.144Z,2.03
2022-11-16T21:31:22.590Z,1.90
2022-11-16T21:33:50.766Z,2.10
2022-11-16T21:36:19.964Z,2.42
2022-11-16T21:38:49.188Z,2.22
2022-11-16T21:41:18.828Z,2.15
2022-11-16T21:43:47.119Z,2.00
2022-11-16T21:46:16.715Z,2.10
2022-11-16T21:48:45.258Z,2.20
2022-11-16T21:51:14.588Z,2.17
2022-11-16T21:53:42.443Z,2.30
2022-11-16T21:56:14.219Z,2.40
2022-11-16T21:58:42.874Z,2.37
2022-11-16T22:01:12.169Z,2.10
2022-11-16T22:03:40.144Z,2.15
2022-11-16T22:06:30.442Z,1.85
2022-11-16T22:08:58.401Z,2.10
2022-11-16T22:11:27.512Z,2.33
2022-11-16T22:13:55.473Z,2.20
2022-11-16T22:16:24.016Z,2.05
2022-11-16T22:18:51.708Z,2.10
2022-11-16T22:21:19.619Z,1.95
2022-11-16T22:23:47.726Z,2.00
2022-11-16T22:26:15.814Z,2.00
2022-11-16T22:28:45.045Z,2.47
2022-11-16T22:31:13.958Z,2.20
2022-11-16T22:33:42.307Z,2.08
2022-11-16T22:36:11.655Z,1.70
2022-11-16T22:38:39.425Z,2.58
2022-11-16T22:41:07.365Z,2.25
2022-11-16T22:43:35.957Z,2.17
2022-11-16T22:46:06.525Z,2.20
2022-11-16T22:48:36.124Z,2.10
2022-11-16T22:51:08.512Z,2.15
2022-11-16T22:53:36.656Z,2.08
2022-11-16T22:56:06.814Z,1.98
2022-11-16T22:58:35.379Z,2.20
2022-11-16T23:01:03.299Z,2.00
2022-11-16T23:03:32.762Z,2.22
2022-11-16T23:06:00.719Z,1.95
2022-11-16T23:08:28.652Z,2.50
2022-11-16T23:11:18.319Z,2.38
2022-11-16T23:14:04.557Z,2.20
2022-11-16T23:16:32.517Z,2.67
2022-11-16T23:19:01.595Z,2.05
2022-11-16T23:21:46.878Z,2.22
2022-11-16T23:24:34.438Z,2.88
2022-11-16T23:27:21.486Z,2.80
2022-11-16T23:29:49.318Z,3.03
2022-11-16T23:32:17.140Z,2.78
2022-11-16T23:34:46.209Z,3.40
2022-11-16T23:37:13.902Z,3.00
2022-11-16T23:39:41.622Z,3.30
2022-11-16T23:42:26.889Z,3.10
2022-11-16T23:44:54.683Z,2.72
2022-11-16T23:47:22.422Z,3.00
2022-11-16T23:49:51.456Z,3.13
2022-11-16T23:52:19.282Z,2.90
2022-11-16T23:54:47.027Z,2.83
2022-11-16T23:57:14.771Z,3.28
2022-11-16T23:59:42.493Z,3.30
